sensor_id;sensor_type;location;lat;lon;timestamp;temperature;humidity
59148;DHT22;44930;52.878;6.168;2022-08-19T00:00:13;16.40;99.90
59148;DHT22;44930;52.878;6.168;2022-08-19T00:02:40;16.60;99.90
59148;DHT22;44930;52.878;6.168;2022-08-19T00:05:07;17.30;99.90
59148;DHT22;44930;52.878;6.168;2022-08-19T00:07:32;16.10;99.90
59148;DHT22;44930;52.878;6.168;2022-08-19T00:09:58;16.10;99.90
59148;DHT22;44930;52.878;6.168;2022-08-19T00:12:24;16.30;99.90
59148;DHT22;44930;52.878;6.168;2022-08-19T00:14:49;16.20;99.90
59148;DHT22;44930;52.878;6.168;2022-08-19T00:17:15;16.00;99.90
59148;DHT22;44930;52.878;6.168;2022-08-19T00:19:41;16.60;99.90
59148;DHT22;44930;52.878;6.168;2022-08-19T00:22:06;16.10;99.90
59148;DHT22;44930;52.878;6.168;2022-08-19T00:24:34;16.10;99.90
59148;DHT22;44930;52.878;6.168;2022-08-19T00:27:01;15.80;99.90
59148;DHT22;44930;52.878;6.168;2022-08-19T00:29:27;16.30;99.90
59148;DHT22;44930;52.878;6.168;2022-08-19T00:31:53;15.90;99.90
59148;DHT22;44930;52.878;6.168;2022-08-19T00:34:21;15.60;99.90
59148;DHT22;44930;52.878;6.168;2022-08-19T00:36:48;15.90;99.90
59148;DHT22;44930;52.878;6.168;2022-08-19T00:39:15;15.70;99.90
59148;DHT22;44930;52.878;6.168;2022-08-19T00:41:42;15.40;99.90
59148;DHT22;44930;52.878;6.168;2022-08-19T00:44:18;15.30;99.90
59148;DHT22;44930;52.878;6.168;2022-08-19T00:46:49;15.90;99.90
59148;DHT22;44930;52.878;6.168;2022-08-19T00:49:36;15.70;99.90
59148;DHT22;44930;52.878;6.168;2022-08-19T00:52:12;15.40;99.90
59148;DHT22;44930;52.878;6.168;2022-08-19T00:54:40;15.70;99.90
59148;DHT22;44930;52.878;6.168;2022-08-19T00:57:13;15.20;99.90
59148;DHT22;44930;52.878;6.168;2022-08-19T00:59:41;15.60;99.90
59148;DHT22;44930;52.878;6.168;2022-08-19T01:02:07;15.40;99.90
59148;DHT22;44930;52.878;6.168;2022-08-19T01:04:33;15.30;99.90
59148;DHT22;44930;52.878;6.168;2022-08-19T01:06:59;15.00;99.90
59148;DHT22;44930;52.878;6.168;2022-08-19T01:09:25;15.10;99.90
59148;DHT22;44930;52.878;6.168;2022-08-19T01:11:51;15.20;99.90
59148;DHT22;44930;52.878;6.168;2022-08-19T01:14:17;15.80;99.90
59148;DHT22;44930;52.878;6.168;2022-08-19T01:16:45;15.20;99.90
59148;DHT22;44930;52.878;6.168;2022-08-19T01:19:26;15.60;99.90
59148;DHT22;44930;52.878;6.168;2022-08-19T01:22:02;15.10;99.90
59148;DHT22;44930;52.878;6.168;2022-08-19T01:24:28;15.40;99.90
59148;DHT22;44930;52.878;6.168;2022-08-19T01:26:54;15.40;99.90
59148;DHT22;44930;52.878;6.168;2022-08-19T01:29:20;15.10;99.90
59148;DHT22;44930;52.878;6.168;2022-08-19T01:31:45;15.40;99.90
59148;DHT22;44930;52.878;6.168;2022-08-19T01:34:11;15.40;99.90
59148;DHT22;44930;52.878;6.168;2022-08-19T01:36:40;15.10;99.90
59148;DHT22;44930;52.878;6.168;2022-08-19T01:39:09;15.00;99.90
59148;DHT22;44930;52.878;6.168;2022-08-19T01:41:35;15.10;99.90
59148;DHT22;44930;52.878;6.168;2022-08-19T01:44:01;15.20;99.90
59148;DHT22;44930;52.878;6.168;2022-08-19T01:46:30;15.00;99.90
59148;DHT22;44930;52.878;6.168;2022-08-19T01:48:55;15.30;99.90
59148;DHT22;44930;52.878;6.168;2022-08-19T01:51:21;15.10;99.90
59148;DHT22;44930;52.878;6.168;2022-08-19T01:53:49;15.20;99.90
59148;DHT22;44930;52.878;6.168;2022-08-19T01:56:15;15.20;99.90
59148;DHT22;44930;52.878;6.168;2022-08-19T01:58:44;14.70;99.90
59148;DHT22;44930;52.878;6.168;2022-08-19T02:01:11;14.70;99.90
59148;DHT22;44930;52.878;6.168;2022-08-19T02:03:37;14.80;99.90
59148;DHT22;44930;52.878;6.168;2022-08-19T02:06:04;15.10;99.90
59148;DHT22;44930;52.878;6.168;2022-08-19T02:08:32;15.10;99.90
59148;DHT22;44930;52.878;6.168;2022-08-19T02:10:58;15.00;99.90
59148;DHT22;44930;52.878;6.168;2022-08-19T02:13:24;14.70;99.90
59148;DHT22;44930;52.878;6.168;2022-08-19T02:15:50;14.70;99.90
59148;DHT22;44930;52.878;6.168;2022-08-19T02:18:16;15.10;99.90
59148;DHT22;44930;52.878;6.168;2022-08-19T02:20:43;14.80;99.90
59148;DHT22;44930;52.878;6.168;2022-08-19T02:23:10;14.70;99.90
59148;DHT22;44930;52.878;6.168;2022-08-19T02:25:37;14.90;99.90
59148;DHT22;44930;52.878;6.168;2022-08-19T02:28:02;15.00;99.90
59148;DHT22;44930;52.878;6.168;2022-08-19T02:30:28;15.10;99.90
59148;DHT22;44930;52.878;6.168;2022-08-19T02:32:53;14.60;99.90
59148;DHT22;44930;52.878;6.168;2022-08-19T02:35:20;14.90;99.90
59148;DHT22;44930;52.878;6.168;2022-08-19T02:37:45;15.00;99.90
59148;DHT22;44930;52.878;6.168;2022-08-19T02:40:31;14.80;99.90
59148;DHT22;44930;52.878;6.168;2022-08-19T02:43:01;15.10;99.90
59148;DHT22;44930;52.878;6.168;2022-08-19T02:45:27;14.90;99.90
59148;DHT22;44930;52.878;6.168;2022-08-19T02:47:52;15.30;99.90
59148;DHT22;44930;52.878;6.168;2022-08-19T02:50:18;15.20;99.90
59148;DHT22;44930;52.878;6.168;2022-08-19T02:52:44;15.30;99.90
59148;DHT22;44930;52.878;6.168;2022-08-19T02:55:10;15.30;99.90
59148;DHT22;44930;52.878;6.168;2022-08-19T02:57:36;15.20;99.90
59148;DHT22;44930;52.878;6.168;2022-08-19T03:00:05;15.10;99.90
59148;DHT22;44930;52.878;6.168;2022-08-19T03:02:32;15.30;99.90
59148;DHT22;44930;52.878;6.168;2022-08-19T03:04:57;15.10;99.90
59148;DHT22;44930;52.878;6.168;2022-08-19T03:07:23;15.20;99.90
59148;DHT22;44930;52.878;6.168;2022-08-19T03:09:49;14.80;99.90
59148;DHT22;44930;52.878;6.168;2022-08-19T03:12:14;15.20;99.90
59148;DHT22;44930;52.878;6.168;2022-08-19T03:14:40;15.00;99.90
59148;DHT22;44930;52.878;6.168;2022-08-19T03:17:05;15.10;99.90
59148;DHT22;44930;52.878;6.168;2022-08-19T03:19:31;15.30;99.90
59148;DHT22;44930;52.878;6.168;2022-08-19T03:21:57;14.50;99.90
59148;DHT22;44930;52.878;6.168;2022-08-19T03:24:23;14.60;99.90
59148;DHT22;44930;52.878;6.168;2022-08-19T03:26:53;15.10;99.90
59148;DHT22;44930;52.878;6.168;2022-08-19T03:29:24;14.40;99.90
59148;DHT22;44930;52.878;6.168;2022-08-19T03:31:49;15.00;99.90
59148;DHT22;44930;52.878;6.168;2022-08-19T03:34:25;14.90;99.90
59148;DHT22;44930;52.878;6.168;2022-08-19T03:36:55;14.90;99.90
59148;DHT22;44930;52.878;6.168;2022-08-19T03:39:21;14.70;99.90
59148;DHT22;44930;52.878;6.168;2022-08-19T03:41:49;14.70;99.90
59148;DHT22;44930;52.878;6.168;2022-08-19T03:44:19;15.20;99.90
59148;DHT22;44930;52.878;6.168;2022-08-19T03:46:54;15.10;99.90
59148;DHT22;44930;52.878;6.168;2022-08-19T03:49:22;15.00;99.90
59148;DHT22;44930;52.878;6.168;2022-08-19T03:51:49;15.20;99.90
59148;DHT22;44930;52.878;6.168;2022-08-19T03:54:18;14.30;99.90
59148;DHT22;44930;52.878;6.168;2022-08-19T03:56:47;14.90;99.90
59148;DHT22;44930;52.878;6.168;2022-08-19T03:59:17;15.30;99.90
59148;DHT22;44930;52.878;6.168;2022-08-19T04:01:43;14.60;99.90
59148;DHT22;44930;52.878;6.168;2022-08-19T04:04:09;14.90;99.90
59148;DHT22;44930;52.878;6.168;2022-08-19T04:06:36;15.10;99.90
59148;DHT22;44930;52.878;6.168;2022-08-19T04:09:05;15.20;99.90
59148;DHT22;44930;52.878;6.168;2022-08-19T04:11:35;14.60;99.90
59148;DHT22;44930;52.878;6.168;2022-08-19T04:14:01;14.70;99.90
59148;DHT22;44930;52.878;6.168;2022-08-19T04:16:27;14.60;99.90
59148;DHT22;44930;52.878;6.168;2022-08-19T04:18:56;14.90;99.90
59148;DHT22;44930;52.878;6.168;2022-08-19T04:21:26;14.90;99.90
59148;DHT22;44930;52.878;6.168;2022-08-19T04:23:53;14.60;99.90
59148;DHT22;44930;52.878;6.168;2022-08-19T04:26:25;14.70;99.90
59148;DHT22;44930;52.878;6.168;2022-08-19T04:28:51;14.50;99.90
59148;DHT22;44930;52.878;6.168;2022-08-19T04:31:23;14.60;99.90
59148;DHT22;44930;52.878;6.168;2022-08-19T04:34:00;14.90;99.90
59148;DHT22;44930;52.878;6.168;2022-08-19T04:36:30;14.30;99.90
59148;DHT22;44930;52.878;6.168;2022-08-19T04:38:58;14.50;99.90
59148;DHT22;44930;52.878;6.168;2022-08-19T04:41:24;14.60;99.90
59148;DHT22;44930;52.878;6.168;2022-08-19T04:44:09;15.20;99.90
59148;DHT22;44930;52.878;6.168;2022-08-19T04:46:36;14.50;99.90
59148;DHT22;44930;52.878;6.168;2022-08-19T04:49:03;14.30;99.90
59148;DHT22;44930;52.878;6.168;2022-08-19T04:51:31;14.70;99.90
59148;DHT22;44930;52.878;6.168;2022-08-19T04:53:57;14.30;99.90
59148;DHT22;44930;52.878;6.168;2022-08-19T04:56:24;14.50;99.90
59148;DHT22;44930;52.878;6.168;2022-08-19T04:58:52;15.00;99.90
59148;DHT22;44930;52.878;6.168;2022-08-19T05:01:21;15.20;99.90
59148;DHT22;44930;52.878;6.168;2022-08-19T05:03:47;15.10;99.90
59148;DHT22;44930;52.878;6.168;2022-08-19T05:06:15;15.20;99.90
59148;DHT22;44930;52.878;6.168;2022-08-19T05:08:42;14.90;99.90
59148;DHT22;44930;52.878;6.168;2022-08-19T05:11:16;14.70;99.90
59148;DHT22;44930;52.878;6.168;2022-08-19T05:13:44;15.20;99.90
59148;DHT22;44930;52.878;6.168;2022-08-19T05:16:12;14.90;99.90
59148;DHT22;44930;52.878;6.168;2022-08-19T05:18:39;15.00;99.90
59148;DHT22;44930;52.878;6.168;2022-08-19T05:21:25;14.80;99.90
59148;DHT22;44930;52.878;6.168;2022-08-19T05:24:09;14.90;99.90
59148;DHT22;44930;52.878;6.168;2022-08-19T05:26:44;15.50;99.90
59148;DHT22;44930;52.878;6.168;2022-08-19T05:29:12;14.80;99.90
59148;DHT22;44930;52.878;6.168;2022-08-19T05:31:38;14.90;99.90
59148;DHT22;44930;52.878;6.168;2022-08-19T05:34:04;15.20;99.90
59148;DHT22;44930;52.878;6.168;2022-08-19T05:36:38;15.40;99.90
59148;DHT22;44930;52.878;6.168;2022-08-19T05:39:06;15.10;99.90
59148;DHT22;44930;52.878;6.168;2022-08-19T05:41:32;14.80;99.90
59148;DHT22;44930;52.878;6.168;2022-08-19T05:44:00;15.30;99.90
59148;DHT22;44930;52.878;6.168;2022-08-19T05:46:26;15.50;99.90
59148;DHT22;44930;52.878;6.168;2022-08-19T05:48:51;15.50;99.90
59148;DHT22;44930;52.878;6.168;2022-08-19T05:51:17;15.00;99.90
59148;DHT22;44930;52.878;6.168;2022-08-19T05:53:43;15.60;99.90
59148;DHT22;44930;52.878;6.168;2022-08-19T05:56:13;16.10;99.90
59148;DHT22;44930;52.878;6.168;2022-08-19T05:58:40;15.50;99.90
59148;DHT22;44930;52.878;6.168;2022-08-19T06:01:11;15.70;99.90
59148;DHT22;44930;52.878;6.168;2022-08-19T06:03:36;15.50;99.90
59148;DHT22;44930;52.878;6.168;2022-08-19T06:06:04;15.90;99.90
59148;DHT22;44930;52.878;6.168;2022-08-19T06:08:30;15.50;99.90
59148;DHT22;44930;52.878;6.168;2022-08-19T06:10:56;16.00;99.90
59148;DHT22;44930;52.878;6.168;2022-08-19T06:13:22;15.90;99.90
59148;DHT22;44930;52.878;6.168;2022-08-19T06:15:49;16.00;99.90
59148;DHT22;44930;52.878;6.168;2022-08-19T06:18:15;15.90;99.90
59148;DHT22;44930;52.878;6.168;2022-08-19T06:20:42;16.10;99.90
59148;DHT22;44930;52.878;6.168;2022-08-19T06:23:08;16.30;99.90
59148;DHT22;44930;52.878;6.168;2022-08-19T06:25:34;16.50;99.90
59148;DHT22;44930;52.878;6.168;2022-08-19T06:28:00;16.50;99.90
59148;DHT22;44930;52.878;6.168;2022-08-19T06:30:25;16.30;99.90
59148;DHT22;44930;52.878;6.168;2022-08-19T06:32:51;17.00;99.90
59148;DHT22;44930;52.878;6.168;2022-08-19T06:35:16;17.00;99.90
59148;DHT22;44930;52.878;6.168;2022-08-19T06:37:42;16.40;99.90
59148;DHT22;44930;52.878;6.168;2022-08-19T06:40:08;16.60;99.90
59148;DHT22;44930;52.878;6.168;2022-08-19T06:42:36;17.10;99.90
59148;DHT22;44930;52.878;6.168;2022-08-19T06:45:04;17.20;99.90
59148;DHT22;44930;52.878;6.168;2022-08-19T06:47:30;17.10;99.90
59148;DHT22;44930;52.878;6.168;2022-08-19T06:49:58;16.90;99.90
59148;DHT22;44930;52.878;6.168;2022-08-19T06:52:34;16.70;99.90
59148;DHT22;44930;52.878;6.168;2022-08-19T06:55:01;17.40;99.90
59148;DHT22;44930;52.878;6.168;2022-08-19T06:57:27;18.60;99.90
59148;DHT22;44930;52.878;6.168;2022-08-19T06:59:53;17.70;99.90
59148;DHT22;44930;52.878;6.168;2022-08-19T07:02:21;18.10;99.90
59148;DHT22;44930;52.878;6.168;2022-08-19T07:04:47;17.80;99.90
59148;DHT22;44930;52.878;6.168;2022-08-19T07:07:14;18.10;99.90
59148;DHT22;44930;52.878;6.168;2022-08-19T07:09:42;18.10;99.90
59148;DHT22;44930;52.878;6.168;2022-08-19T07:12:10;18.10;99.90
59148;DHT22;44930;52.878;6.168;2022-08-19T07:14:37;18.20;99.90
59148;DHT22;44930;52.878;6.168;2022-08-19T07:17:06;17.90;99.90
59148;DHT22;44930;52.878;6.168;2022-08-19T07:19:33;18.30;99.90
59148;DHT22;44930;52.878;6.168;2022-08-19T07:22:01;18.30;99.90
59148;DHT22;44930;52.878;6.168;2022-08-19T07:24:28;17.90;99.90
59148;DHT22;44930;52.878;6.168;2022-08-19T07:26:56;18.60;99.90
59148;DHT22;44930;52.878;6.168;2022-08-19T07:29:23;18.70;99.90
59148;DHT22;44930;52.878;6.168;2022-08-19T07:31:50;18.80;99.90
59148;DHT22;44930;52.878;6.168;2022-08-19T07:34:16;18.70;99.90
59148;DHT22;44930;52.878;6.168;2022-08-19T07:36:44;18.50;99.90
59148;DHT22;44930;52.878;6.168;2022-08-19T07:39:13;18.50;99.90
59148;DHT22;44930;52.878;6.168;2022-08-19T07:41:39;18.60;99.90
59148;DHT22;44930;52.878;6.168;2022-08-19T07:44:06;18.80;99.90
59148;DHT22;44930;52.878;6.168;2022-08-19T07:46:34;19.30;99.90
59148;DHT22;44930;52.878;6.168;2022-08-19T07:49:00;19.10;99.90
59148;DHT22;44930;52.878;6.168;2022-08-19T07:51:27;18.90;99.90
59148;DHT22;44930;52.878;6.168;2022-08-19T07:53:53;18.90;99.90
59148;DHT22;44930;52.878;6.168;2022-08-19T07:56:19;19.30;99.90
59148;DHT22;44930;52.878;6.168;2022-08-19T07:58:48;19.50;99.90
59148;DHT22;44930;52.878;6.168;2022-08-19T08:01:20;19.10;99.90
59148;DHT22;44930;52.878;6.168;2022-08-19T08:03:46;19.30;99.90
59148;DHT22;44930;52.878;6.168;2022-08-19T08:06:30;19.80;99.90
59148;DHT22;44930;52.878;6.168;2022-08-19T08:09:17;19.50;99.90
59148;DHT22;44930;52.878;6.168;2022-08-19T08:12:00;19.80;99.90
59148;DHT22;44930;52.878;6.168;2022-08-19T08:14:30;19.60;99.90
59148;DHT22;44930;52.878;6.168;2022-08-19T08:16:57;19.70;99.90
59148;DHT22;44930;52.878;6.168;2022-08-19T08:19:24;19.80;99.90
59148;DHT22;44930;52.878;6.168;2022-08-19T08:21:51;20.10;99.90
59148;DHT22;44930;52.878;6.168;2022-08-19T08:24:17;20.00;99.90
59148;DHT22;44930;52.878;6.168;2022-08-19T08:26:44;19.80;99.90
59148;DHT22;44930;52.878;6.168;2022-08-19T08:29:11;20.60;99.90
59148;DHT22;44930;52.878;6.168;2022-08-19T08:31:42;20.10;99.90
59148;DHT22;44930;52.878;6.168;2022-08-19T08:34:08;20.50;99.90
59148;DHT22;44930;52.878;6.168;2022-08-19T08:36:42;22.00;99.90
59148;DHT22;44930;52.878;6.168;2022-08-19T08:39:15;20.50;99.90
59148;DHT22;44930;52.878;6.168;2022-08-19T08:41:56;20.70;99.90
59148;DHT22;44930;52.878;6.168;2022-08-19T08:47:11;21.00;99.90
59148;DHT22;44930;52.878;6.168;2022-08-19T08:50:04;21.00;99.90
59148;DHT22;44930;52.878;6.168;2022-08-19T08:52:34;21.00;99.90
59148;DHT22;44930;52.878;6.168;2022-08-19T08:55:08;21.10;99.90
59148;DHT22;44930;52.878;6.168;2022-08-19T08:57:38;21.20;99.90
59148;DHT22;44930;52.878;6.168;2022-08-19T09:00:09;21.30;99.90
59148;DHT22;44930;52.878;6.168;2022-08-19T09:02:36;21.10;99.90
59148;DHT22;44930;52.878;6.168;2022-08-19T09:05:01;21.30;99.90
59148;DHT22;44930;52.878;6.168;2022-08-19T09:15:54;22.00;99.90
59148;DHT22;44930;52.878;6.168;2022-08-19T09:18:22;22.10;99.90
59148;DHT22;44930;52.878;6.168;2022-08-19T09:20:48;21.40;99.90
59148;DHT22;44930;52.878;6.168;2022-08-19T09:23:14;22.70;99.90
59148;DHT22;44930;52.878;6.168;2022-08-19T09:25:40;22.20;99.90
59148;DHT22;44930;52.878;6.168;2022-08-19T09:28:06;22.40;99.90
59148;DHT22;44930;52.878;6.168;2022-08-19T09:30:34;22.90;99.90
59148;DHT22;44930;52.878;6.168;2022-08-19T09:33:04;22.00;99.90
59148;DHT22;44930;52.878;6.168;2022-08-19T09:35:30;22.00;99.90
59148;DHT22;44930;52.878;6.168;2022-08-19T09:37:57;22.80;99.90
59148;DHT22;44930;52.878;6.168;2022-08-19T09:40:23;22.50;99.90
59148;DHT22;44930;52.878;6.168;2022-08-19T09:42:49;23.40;99.90
59148;DHT22;44930;52.878;6.168;2022-08-19T09:45:15;22.90;99.90
59148;DHT22;44930;52.878;6.168;2022-08-19T09:47:42;22.40;99.90
59148;DHT22;44930;52.878;6.168;2022-08-19T09:50:10;22.70;99.90
59148;DHT22;44930;52.878;6.168;2022-08-19T09:52:36;22.40;99.90
59148;DHT22;44930;52.878;6.168;2022-08-19T09:55:06;22.70;99.90
59148;DHT22;44930;52.878;6.168;2022-08-19T09:57:33;22.40;99.90
59148;DHT22;44930;52.878;6.168;2022-08-19T09:59:58;24.30;99.90
59148;DHT22;44930;52.878;6.168;2022-08-19T10:02:24;23.30;99.90
59148;DHT22;44930;52.878;6.168;2022-08-19T10:04:51;23.30;99.90
59148;DHT22;44930;52.878;6.168;2022-08-19T10:07:35;23.60;99.90
59148;DHT22;44930;52.878;6.168;2022-08-19T10:10:03;23.10;99.90
59148;DHT22;44930;52.878;6.168;2022-08-19T10:12:29;23.60;99.90
59148;DHT22;44930;52.878;6.168;2022-08-19T10:14:54;23.40;99.90
59148;DHT22;44930;52.878;6.168;2022-08-19T10:17:21;23.60;99.90
59148;DHT22;44930;52.878;6.168;2022-08-19T10:19:46;23.40;99.90
59148;DHT22;44930;52.878;6.168;2022-08-19T10:22:12;23.90;99.90
59148;DHT22;44930;52.878;6.168;2022-08-19T10:24:39;23.50;99.90
59148;DHT22;44930;52.878;6.168;2022-08-19T10:27:04;23.50;99.90
59148;DHT22;44930;52.878;6.168;2022-08-19T10:29:31;23.60;99.90
59148;DHT22;44930;52.878;6.168;2022-08-19T10:32:01;24.00;99.90
59148;DHT22;44930;52.878;6.168;2022-08-19T10:34:27;23.50;99.90
59148;DHT22;44930;52.878;6.168;2022-08-19T10:36:53;24.10;99.90
59148;DHT22;44930;52.878;6.168;2022-08-19T10:39:19;23.80;99.90
59148;DHT22;44930;52.878;6.168;2022-08-19T10:41:45;23.90;99.90
59148;DHT22;44930;52.878;6.168;2022-08-19T10:44:12;23.70;99.90
59148;DHT22;44930;52.878;6.168;2022-08-19T10:46:40;24.10;99.90
59148;DHT22;44930;52.878;6.168;2022-08-19T10:49:08;24.30;99.90
59148;DHT22;44930;52.878;6.168;2022-08-19T10:51:35;24.60;99.90
59148;DHT22;44930;52.878;6.168;2022-08-19T10:54:19;24.50;99.90
59148;DHT22;44930;52.878;6.168;2022-08-19T10:56:45;24.70;99.90
59148;DHT22;44930;52.878;6.168;2022-08-19T10:59:22;24.50;99.90
59148;DHT22;44930;52.878;6.168;2022-08-19T11:01:49;24.40;99.90
59148;DHT22;44930;52.878;6.168;2022-08-19T11:04:17;25.50;99.90
59148;DHT22;44930;52.878;6.168;2022-08-19T11:06:45;25.10;99.90
59148;DHT22;44930;52.878;6.168;2022-08-19T11:09:14;25.30;99.90
59148;DHT22;44930;52.878;6.168;2022-08-19T11:11:41;24.90;99.90
59148;DHT22;44930;52.878;6.168;2022-08-19T11:14:08;25.40;99.90
59148;DHT22;44930;52.878;6.168;2022-08-19T11:16:34;24.80;99.90
59148;DHT22;44930;52.878;6.168;2022-08-19T11:19:00;24.60;99.90
59148;DHT22;44930;52.878;6.168;2022-08-19T11:21:28;24.40;99.90
59148;DHT22;44930;52.878;6.168;2022-08-19T11:23:59;24.90;99.90
59148;DHT22;44930;52.878;6.168;2022-08-19T11:26:26;26.30;99.90
59148;DHT22;44930;52.878;6.168;2022-08-19T11:28:52;26.10;99.90
59148;DHT22;44930;52.878;6.168;2022-08-19T11:31:25;26.10;99.90
59148;DHT22;44930;52.878;6.168;2022-08-19T11:33:50;27.10;99.90
59148;DHT22;44930;52.878;6.168;2022-08-19T11:36:18;25.70;99.90
59148;DHT22;44930;52.878;6.168;2022-08-19T11:38:44;26.30;99.90
59148;DHT22;44930;52.878;6.168;2022-08-19T11:41:10;26.20;99.90
59148;DHT22;44930;52.878;6.168;2022-08-19T11:43:37;26.40;99.90
59148;DHT22;44930;52.878;6.168;2022-08-19T11:46:07;26.00;99.90
59148;DHT22;44930;52.878;6.168;2022-08-19T11:48:33;26.30;99.90
59148;DHT22;44930;52.878;6.168;2022-08-19T11:51:02;26.00;99.90
59148;DHT22;44930;52.878;6.168;2022-08-19T11:53:30;27.40;99.90
59148;DHT22;44930;52.878;6.168;2022-08-19T11:55:56;26.50;99.90
59148;DHT22;44930;52.878;6.168;2022-08-19T11:58:22;26.50;99.90
59148;DHT22;44930;52.878;6.168;2022-08-19T12:00:48;26.40;99.90
59148;DHT22;44930;52.878;6.168;2022-08-19T12:03:14;27.90;99.90
59148;DHT22;44930;52.878;6.168;2022-08-19T12:05:40;27.30;99.90
59148;DHT22;44930;52.878;6.168;2022-08-19T12:08:07;25.80;99.90
59148;DHT22;44930;52.878;6.168;2022-08-19T12:10:33;27.00;99.90
59148;DHT22;44930;52.878;6.168;2022-08-19T12:12:59;25.30;99.90
59148;DHT22;44930;52.878;6.168;2022-08-19T12:15:25;26.70;99.90
59148;DHT22;44930;52.878;6.168;2022-08-19T12:17:52;25.10;99.90
59148;DHT22;44930;52.878;6.168;2022-08-19T12:20:20;26.90;99.90
59148;DHT22;44930;52.878;6.168;2022-08-19T12:22:46;25.40;99.90
59148;DHT22;44930;52.878;6.168;2022-08-19T12:25:11;26.90;99.90
59148;DHT22;44930;52.878;6.168;2022-08-19T12:27:38;27.10;99.90
59148;DHT22;44930;52.878;6.168;2022-08-19T12:30:05;26.10;99.90
59148;DHT22;44930;52.878;6.168;2022-08-19T12:32:31;26.00;99.90
59148;DHT22;44930;52.878;6.168;2022-08-19T12:34:57;26.20;99.90
59148;DHT22;44930;52.878;6.168;2022-08-19T12:37:22;26.00;99.90
59148;DHT22;44930;52.878;6.168;2022-08-19T12:39:48;26.50;99.90
59148;DHT22;44930;52.878;6.168;2022-08-19T12:42:14;25.90;99.90
59148;DHT22;44930;52.878;6.168;2022-08-19T12:44:42;25.90;99.90
59148;DHT22;44930;52.878;6.168;2022-08-19T12:47:10;26.20;99.90
59148;DHT22;44930;52.878;6.168;2022-08-19T12:49:37;25.80;99.90
59148;DHT22;44930;52.878;6.168;2022-08-19T12:52:05;26.90;99.90
59148;DHT22;44930;52.878;6.168;2022-08-19T12:54:32;27.10;99.90
59148;DHT22;44930;52.878;6.168;2022-08-19T12:56:58;25.50;99.90
59148;DHT22;44930;52.878;6.168;2022-08-19T12:59:25;24.90;99.90
59148;DHT22;44930;52.878;6.168;2022-08-19T13:01:51;26.00;99.90
59148;DHT22;44930;52.878;6.168;2022-08-19T13:04:17;26.70;99.90
59148;DHT22;44930;52.878;6.168;2022-08-19T13:06:43;27.00;99.90
59148;DHT22;44930;52.878;6.168;2022-08-19T13:09:09;26.00;99.90
59148;DHT22;44930;52.878;6.168;2022-08-19T13:11:37;27.60;99.90
59148;DHT22;44930;52.878;6.168;2022-08-19T13:14:03;26.30;99.90
59148;DHT22;44930;52.878;6.168;2022-08-19T13:16:29;26.70;99.90
59148;DHT22;44930;52.878;6.168;2022-08-19T13:18:56;26.90;99.90
59148;DHT22;44930;52.878;6.168;2022-08-19T13:21:25;27.10;99.90
59148;DHT22;44930;52.878;6.168;2022-08-19T13:23:52;27.10;99.90
59148;DHT22;44930;52.878;6.168;2022-08-19T13:26:18;26.30;99.90
59148;DHT22;44930;52.878;6.168;2022-08-19T13:28:44;26.60;99.90
59148;DHT22;44930;52.878;6.168;2022-08-19T13:31:32;27.40;99.90
59148;DHT22;44930;52.878;6.168;2022-08-19T13:34:19;26.20;99.90
59148;DHT22;44930;52.878;6.168;2022-08-19T13:36:52;25.40;99.90
59148;DHT22;44930;52.878;6.168;2022-08-19T13:39:18;25.40;99.90
59148;DHT22;44930;52.878;6.168;2022-08-19T13:41:46;25.00;99.90
59148;DHT22;44930;52.878;6.168;2022-08-19T13:44:14;25.00;99.90
59148;DHT22;44930;52.878;6.168;2022-08-19T13:46:41;25.00;99.90
59148;DHT22;44930;52.878;6.168;2022-08-19T13:49:10;24.80;99.90
59148;DHT22;44930;52.878;6.168;2022-08-19T13:51:37;24.90;99.90
59148;DHT22;44930;52.878;6.168;2022-08-19T13:54:05;25.90;99.90
59148;DHT22;44930;52.878;6.168;2022-08-19T13:56:30;24.60;99.90
59148;DHT22;44930;52.878;6.168;2022-08-19T13:58:56;25.20;99.90
59148;DHT22;44930;52.878;6.168;2022-08-19T14:01:23;24.30;99.90
59148;DHT22;44930;52.878;6.168;2022-08-19T14:03:49;24.30;99.90
59148;DHT22;44930;52.878;6.168;2022-08-19T14:06:15;24.80;99.90
59148;DHT22;44930;52.878;6.168;2022-08-19T14:08:42;25.70;99.90
59148;DHT22;44930;52.878;6.168;2022-08-19T14:11:08;24.40;99.90
59148;DHT22;44930;52.878;6.168;2022-08-19T14:13:34;24.20;99.90
59148;DHT22;44930;52.878;6.168;2022-08-19T14:16:00;24.50;99.90
59148;DHT22;44930;52.878;6.168;2022-08-19T14:18:25;24.50;99.90
59148;DHT22;44930;52.878;6.168;2022-08-19T14:20:52;24.40;99.90
59148;DHT22;44930;52.878;6.168;2022-08-19T14:23:17;25.20;99.90
59148;DHT22;44930;52.878;6.168;2022-08-19T14:25:43;25.70;99.90
59148;DHT22;44930;52.878;6.168;2022-08-19T14:28:09;25.80;99.90
59148;DHT22;44930;52.878;6.168;2022-08-19T14:30:36;25.40;99.90
59148;DHT22;44930;52.878;6.168;2022-08-19T14:33:04;25.40;99.90
59148;DHT22;44930;52.878;6.168;2022-08-19T14:35:32;25.60;99.90
59148;DHT22;44930;52.878;6.168;2022-08-19T14:38:00;24.80;99.90
59148;DHT22;44930;52.878;6.168;2022-08-19T14:40:27;24.60;99.90
59148;DHT22;44930;52.878;6.168;2022-08-19T14:42:56;24.90;99.90
59148;DHT22;44930;52.878;6.168;2022-08-19T14:45:25;24.20;99.90
59148;DHT22;44930;52.878;6.168;2022-08-19T14:47:51;24.70;99.90
59148;DHT22;44930;52.878;6.168;2022-08-19T14:50:18;24.70;99.90
59148;DHT22;44930;52.878;6.168;2022-08-19T14:52:48;24.40;99.90
59148;DHT22;44930;52.878;6.168;2022-08-19T14:55:15;25.20;99.90
59148;DHT22;44930;52.878;6.168;2022-08-19T14:57:42;24.40;99.90
59148;DHT22;44930;52.878;6.168;2022-08-19T15:00:09;25.00;99.90
59148;DHT22;44930;52.878;6.168;2022-08-19T15:02:41;25.60;99.90
59148;DHT22;44930;52.878;6.168;2022-08-19T15:05:09;25.30;99.90
59148;DHT22;44930;52.878;6.168;2022-08-19T15:07:35;25.00;99.90
59148;DHT22;44930;52.878;6.168;2022-08-19T15:10:00;25.00;99.90
59148;DHT22;44930;52.878;6.168;2022-08-19T15:12:26;25.40;99.90
59148;DHT22;44930;52.878;6.168;2022-08-19T15:14:52;24.90;99.90
59148;DHT22;44930;52.878;6.168;2022-08-19T15:17:17;25.70;99.90
59148;DHT22;44930;52.878;6.168;2022-08-19T15:19:44;24.40;99.90
59148;DHT22;44930;52.878;6.168;2022-08-19T15:22:10;25.00;99.90
59148;DHT22;44930;52.878;6.168;2022-08-19T15:24:35;24.40;99.90
59148;DHT22;44930;52.878;6.168;2022-08-19T15:27:03;23.90;99.90
59148;DHT22;44930;52.878;6.168;2022-08-19T15:29:30;24.20;99.90
59148;DHT22;44930;52.878;6.168;2022-08-19T15:31:57;24.60;99.90
59148;DHT22;44930;52.878;6.168;2022-08-19T15:34:24;24.20;99.90
59148;DHT22;44930;52.878;6.168;2022-08-19T15:36:54;24.10;99.90
59148;DHT22;44930;52.878;6.168;2022-08-19T15:39:19;24.70;99.90
59148;DHT22;44930;52.878;6.168;2022-08-19T15:41:46;24.40;99.90
59148;DHT22;44930;52.878;6.168;2022-08-19T15:44:14;24.20;99.90